Time;durP1;ratioP1;P1;durP2;ratioP2;P2;SDS_P1;SDS_P2;PMS_P1;PMS_P2;Temp;Humidity;BMP_temperature;BMP_pressure;BME280_temperature;BME280_humidity;BME280_pressure;Samples;Min_cycle;Max_cycle;Signal;HPM_P1;HPM_P2
2024/01/13 00:00:17;;;;;;;4.70;2.30;;;;;;;3.47;100.00;102335.72;6245556;28;20227;-69
2024/01/13 00:03:38;;;;;;;4.93;2.20;;;;;;;3.53;100.00;102330.19;6254744;28;20231;-69
2024/01/13 00:06:59;;;;;;;1.33;1.23;;;;;;;3.52;100.00;102324.00;6237973;28;20450;-69
2024/01/13 00:10:20;;;;;;;2.63;1.57;;;;;;;3.46;100.00;102332.22;6247352;28;20228;-69
2024/01/13 00:13:40;;;;;;;2.30;1.80;;;;;;;3.34;100.00;102321.97;6239539;28;20479;-69
2024/01/13 00:17:03;;;;;;;4.37;2.10;;;;;;;3.41;100.00;102317.31;6237692;28;20227;-69
2024/01/13 00:20:24;;;;;;;1.40;1.30;;;;;;;3.48;100.00;102317.03;6232809;28;21048;-69
2024/01/13 00:23:45;;;;;;;1.40;1.30;;;;;;;3.52;100.00;102313.34;6235729;28;20235;-69
2024/01/13 00:27:05;;;;;;;1.83;1.73;;;;;;;3.47;100.00;102306.41;6232587;28;20263;-68
2024/01/13 00:30:26;;;;;;;2.23;1.47;;;;;;;3.44;100.00;102303.88;6233479;28;20224;-69
2024/01/13 00:33:49;;;;;;;3.43;1.87;;;;;;;3.45;100.00;102302.94;6240153;28;20540;-69
2024/01/13 00:37:10;;;;;;;3.27;1.93;;;;;;;3.47;100.00;102298.41;6238150;28;20235;-67
2024/01/13 00:40:30;;;;;;;3.40;2.23;;;;;;;3.50;100.00;102287.66;6240705;28;20270;-68
2024/01/13 00:43:52;;;;;;;2.30;1.50;;;;;;;3.42;100.00;102281.75;6242862;28;20227;-67
2024/01/13 00:47:12;;;;;;;1.30;1.20;;;;;;;3.49;100.00;102284.13;6238222;28;20235;-68
2024/01/13 00:50:35;;;;;;;1.63;1.53;;;;;;;3.43;100.00;102276.34;6234633;28;20240;-68
2024/01/13 00:53:56;;;;;;;4.50;2.30;;;;;;;3.45;100.00;102276.28;6233934;28;20657;-68
2024/01/13 00:57:17;;;;;;;1.80;1.70;;;;;;;3.42;100.00;102266.59;6240254;28;20239;-69
2024/01/13 01:00:38;;;;;;;3.20;1.37;;;;;;;3.47;100.00;102256.66;6235755;28;20259;-68
2024/01/13 01:03:59;;;;;;;1.73;1.63;;;;;;;3.53;100.00;102255.53;6247636;28;20240;-68
2024/01/13 01:07:21;;;;;;;1.90;1.30;;;;;;;3.47;100.00;102258.44;6245284;28;20515;-68
2024/01/13 01:10:42;;;;;;;1.93;1.77;;;;;;;3.42;100.00;102244.44;6236836;28;20610;-68
2024/01/13 01:14:03;;;;;;;1.60;1.50;;;;;;;3.36;100.00;102240.19;6251051;28;20224;-68
2024/01/13 01:17:24;;;;;;;2.57;1.70;;;;;;;3.43;100.00;102241.69;6238604;28;20255;-68
2024/01/13 01:20:45;;;;;;;3.03;2.33;;;;;;;3.49;100.00;102236.13;6227816;28;20235;-69
2024/01/13 01:24:08;;;;;;;2.77;2.27;;;;;;;3.57;100.00;102227.84;6247968;28;20235;-68
2024/01/13 01:27:29;;;;;;;4.93;3.23;;;;;;;3.44;100.00;102221.25;6221978;28;20259;-68
2024/01/13 01:30:49;;;;;;;4.57;2.20;;;;;;;3.52;100.00;102217.38;6232419;28;20239;-68
2024/01/13 01:34:10;;;;;;;5.17;3.53;;;;;;;3.51;100.00;102207.63;6243100;28;20597;-69
2024/01/13 01:37:31;;;;;;;2.80;2.13;;;;;;;3.40;100.00;102203.66;6239307;28;20315;-68
2024/01/13 01:40:55;;;;;;;2.90;2.60;;;;;;;3.38;100.00;102209.00;6240328;28;20259;-68
2024/01/13 01:44:16;;;;;;;1.90;1.80;;;;;;;3.42;100.00;102202.63;6247678;28;20231;-68
2024/01/13 01:47:41;;;;;;;2.33;1.83;;;;;;;3.48;100.00;102207.75;6222222;28;20351;-69
2024/01/13 01:51:02;;;;;;;4.20;3.10;;;;;;;3.41;100.00;102200.03;6237052;28;20236;-68
2024/01/13 01:54:23;;;;;;;3.50;2.43;;;;;;;3.35;100.00;102189.63;6243958;28;20236;-67
2024/01/13 01:57:45;;;;;;;2.27;2.10;;;;;;;3.34;100.00;102186.06;6237582;28;20283;-68
2024/01/13 02:01:08;;;;;;;2.23;1.73;;;;;;;3.41;100.00;102179.59;6239218;28;20810;-68
2024/01/13 02:04:29;;;;;;;3.20;2.43;;;;;;;3.52;100.00;102197.84;6249797;28;20507;-69
2024/01/13 02:07:50;;;;;;;1.47;1.37;;;;;;;3.50;100.00;102191.69;6225912;28;20236;-68
2024/01/13 02:11:12;;;;;;;1.90;1.40;;;;;;;3.54;100.00;102182.66;6245593;28;20517;-68
2024/01/13 02:14:34;;;;;;;1.47;1.23;;;;;;;3.53;100.00;102175.56;6249091;28;20229;-68
2024/01/13 02:17:55;;;;;;;1.70;1.43;;;;;;;3.58;100.00;102165.63;6230629;28;20243;-69
2024/01/13 02:21:16;;;;;;;3.07;1.70;;;;;;;3.50;100.00;102162.38;6236410;28;20334;-68
2024/01/13 02:24:38;;;;;;;1.40;1.30;;;;;;;3.50;100.00;102149.06;6237467;28;20546;-69
2024/01/13 02:27:59;;;;;;;2.17;1.80;;;;;;;3.48;100.00;102154.47;6221010;28;20235;-69
2024/01/13 02:31:20;;;;;;;2.03;1.67;;;;;;;3.41;100.00;102144.06;6240637;28;20232;-68
2024/01/13 02:34:41;;;;;;;3.57;1.60;;;;;;;3.48;100.00;102143.78;6255364;28;20646;-68
2024/01/13 02:38:02;;;;;;;1.80;1.70;;;;;;;3.36;100.00;102141.56;6232983;28;20224;-68
2024/01/13 02:41:24;;;;;;;4.23;2.20;;;;;;;3.47;100.00;102125.16;6238934;28;20327;-67
2024/01/13 02:44:45;;;;;;;1.27;1.17;;;;;;;3.39;100.00;102121.94;6241706;28;20302;-68
2024/01/13 02:48:11;;;;;;;3.90;1.37;;;;;;;3.41;100.00;102122.75;6227441;28;20263;-68
2024/01/13 02:51:32;;;;;;;2.00;1.90;;;;;;;3.44;100.00;102110.19;6235846;28;20223;-69
2024/01/13 02:54:53;;;;;;;2.17;1.97;;;;;;;3.38;100.00;102105.06;6241528;28;20493;-68
2024/01/13 02:58:15;;;;;;;2.53;2.30;;;;;;;3.39;100.00;102109.50;6247373;28;20236;-68
2024/01/13 03:01:36;;;;;;;3.40;2.73;;;;;;;3.37;100.00;102100.69;6233624;28;20231;-68
2024/01/13 03:04:57;;;;;;;1.97;1.87;;;;;;;3.37;100.00;102092.69;6244096;28;20570;-68
2024/01/13 03:08:18;;;;;;;4.40;3.13;;;;;;;3.30;100.00;102090.34;6248555;28;20240;-69
2024/01/13 03:11:38;;;;;;;2.80;2.50;;;;;;;3.42;100.00;102080.03;6248685;28;20633;-68
2024/01/13 03:15:02;;;;;;;4.13;3.70;;;;;;;3.28;100.00;102081.50;6252150;28;20251;-68
2024/01/13 03:18:23;;;;;;;4.70;2.83;;;;;;;3.29;100.00;102073.50;6240179;28;20232;-68
2024/01/13 03:21:44;;;;;;;4.40;3.37;;;;;;;3.23;100.00;102060.41;6249456;28;21615;-68
2024/01/13 03:25:06;;;;;;;3.40;2.57;;;;;;;3.14;100.00;102060.75;6234970;28;20247;-68
2024/01/13 03:28:27;;;;;;;2.97;2.70;;;;;;;3.17;100.00;102050.84;6245385;28;20228;-68
2024/01/13 03:31:49;;;;;;;2.00;1.87;;;;;;;3.16;100.00;102051.78;6234999;28;20252;-68
2024/01/13 03:35:10;;;;;;;3.90;3.60;;;;;;;3.25;100.00;102051.41;6242479;28;20505;-67
2024/01/13 03:38:31;;;;;;;3.60;2.33;;;;;;;3.14;100.00;102066.09;6245131;28;20315;-69
2024/01/13 03:41:52;;;;;;;3.30;3.03;;;;;;;3.14;100.00;102045.66;6235645;28;22126;-68
2024/01/13 03:45:13;;;;;;;3.20;2.03;;;;;;;3.07;100.00;102051.25;6239610;28;20513;-68
2024/01/13 03:48:35;;;;;;;2.17;2.00;;;;;;;3.08;100.00;102048.56;6240164;28;20240;-68
2024/01/13 03:51:57;;;;;;;2.50;2.30;;;;;;;3.10;100.00;102044.03;6239297;28;20235;-67
2024/01/13 03:55:17;;;;;;;2.80;2.60;;;;;;;3.06;100.00;102044.22;6237462;28;20664;-68
2024/01/13 03:58:39;;;;;;;2.77;2.10;;;;;;;3.19;100.00;102056.13;6241862;28;20314;-68
2024/01/13 04:02:00;;;;;;;2.33;2.13;;;;;;;3.17;100.00;102064.16;6233048;28;20236;-69
2024/01/13 04:05:22;;;;;;;2.30;2.20;;;;;;;3.20;100.00;102044.53;6239021;28;20332;-68
2024/01/13 04:08:44;;;;;;;2.80;2.60;;;;;;;3.23;100.00;102026.63;6248933;28;20645;-68
2024/01/13 04:12:06;;;;;;;2.63;2.40;;;;;;;3.17;100.00;102031.34;6244126;28;20228;-69
2024/01/13 04:15:27;;;;;;;3.40;3.10;;;;;;;3.24;100.00;102036.38;6250129;28;20293;-67
2024/01/13 04:18:48;;;;;;;3.77;3.33;;;;;;;3.20;100.00;102033.88;6244402;28;20224;-68
2024/01/13 04:22:10;;;;;;;4.13;3.13;;;;;;;3.13;100.00;102019.94;6246240;28;20231;-69
2024/01/13 04:25:33;;;;;;;2.93;2.63;;;;;;;3.16;100.00;102024.28;6245776;28;20239;-68
2024/01/13 04:28:53;;;;;;;3.73;3.40;;;;;;;3.25;100.00;102018.59;6249770;28;20227;-68
2024/01/13 04:32:14;;;;;;;4.00;3.70;;;;;;;3.25;100.00;102023.91;6237432;28;20227;-68
2024/01/13 04:35:35;;;;;;;3.77;3.47;;;;;;;3.26;100.00;102020.31;6238299;28;20232;-68
2024/01/13 04:38:57;;;;;;;3.93;3.63;;;;;;;3.19;100.00;102014.34;6254031;28;20236;-70
2024/01/13 04:42:19;;;;;;;2.30;2.17;;;;;;;3.23;100.00;102007.13;6242736;28;20749;-69
2024/01/13 04:45:40;;;;;;;2.47;2.27;;;;;;;3.24;100.00;102003.50;6244634;28;20228;-68
2024/01/13 04:49:01;;;;;;;3.13;2.83;;;;;;;3.16;100.00;101997.63;6248407;28;20601;-68
2024/01/13 04:52:22;;;;;;;3.30;2.90;;;;;;;3.18;100.00;101995.78;6245380;28;20232;-69
2024/01/13 04:55:44;;;;;;;5.97;2.40;;;;;;;3.22;100.00;101992.06;6240999;28;20236;-69
2024/01/13 04:59:05;;;;;;;2.13;1.90;;;;;;;3.36;100.00;101991.50;6246915;28;20229;-70
2024/01/13 05:02:26;;;;;;;2.63;2.23;;;;;;;3.21;100.00;101979.69;6237944;28;20315;-69
2024/01/13 05:05:47;;;;;;;2.70;2.50;;;;;;;3.14;100.00;101980.84;6241550;28;20330;-69
2024/01/13 05:09:09;;;;;;;2.37;2.13;;;;;;;3.11;100.00;101964.97;6259478;28;20232;-69
2024/01/13 05:12:31;;;;;;;2.23;2.03;;;;;;;3.17;100.00;101959.44;6245688;28;20236;-69
2024/01/13 05:15:52;;;;;;;2.20;1.90;;;;;;;3.16;100.00;101957.69;6243405;28;20243;-69
2024/01/13 05:19:13;;;;;;;3.93;3.53;;;;;;;3.15;100.00;101950.63;6244365;28;20601;-68
2024/01/13 05:22:34;;;;;;;3.43;3.23;;;;;;;3.17;100.00;101943.44;6234231;28;20228;-68
2024/01/13 05:25:55;;;;;;;3.50;3.20;;;;;;;3.17;100.00;101940.78;6242187;28;20236;-69
2024/01/13 05:29:18;;;;;;;4.30;3.97;;;;;;;3.20;100.00;101944.19;6247193;28;20220;-68
2024/01/13 05:32:39;;;;;;;3.60;2.63;;;;;;;3.14;100.00;101928.44;6238919;28;20216;-69
2024/01/13 05:36:00;;;;;;;3.37;3.07;;;;;;;3.10;100.00;101928.63;6242136;28;20220;-68
2024/01/13 05:39:21;;;;;;;3.97;3.67;;;;;;;3.12;100.00;101919.66;6250613;28;23457;-69
2024/01/13 05:42:42;;;;;;;3.03;2.83;;;;;;;3.08;100.00;101914.50;6237000;28;20259;-69
2024/01/13 05:46:04;;;;;;;4.17;3.13;;;;;;;3.06;100.00;101913.72;6225991;28;20843;-69
2024/01/13 05:49:26;;;;;;;3.33;3.13;;;;;;;3.15;100.00;101913.34;6243396;28;20240;-68
2024/01/13 05:52:48;;;;;;;3.13;2.83;;;;;;;3.16;100.00;101912.38;6233360;28;20310;-68
2024/01/13 05:56:09;;;;;;;3.73;3.40;;;;;;;3.23;100.00;101908.56;6245477;28;20663;-69
2024/01/13 05:59:30;;;;;;;2.97;2.27;;;;;;;3.13;100.00;101893.84;6246082;28;20232;-68
2024/01/13 06:02:53;;;;;;;2.40;2.20;;;;;;;3.09;100.00;101890.47;6227837;28;20243;-68
2024/01/13 06:06:14;;;;;;;3.23;2.93;;;;;;;3.07;100.00;101886.13;6235532;28;20235;-69
2024/01/13 06:09:35;;;;;;;2.30;2.10;;;;;;;3.09;100.00;101889.59;6247470;28;20232;-68
2024/01/13 06:12:56;;;;;;;3.43;3.13;;;;;;;3.02;100.00;101874.81;6235722;28;20338;-68
2024/01/13 06:16:17;;;;;;;3.23;2.93;;;;;;;3.02;100.00;101882.81;6231499;28;20239;-68
2024/01/13 06:19:39;;;;;;;3.83;2.63;;;;;;;2.99;100.00;101873.16;6242768;28;20685;-69
2024/01/13 06:23:00;;;;;;;4.63;4.23;;;;;;;2.99;100.00;101867.81;6237405;28;20259;-69
2024/01/13 06:26:21;;;;;;;3.30;2.63;;;;;;;3.08;100.00;101863.91;6246125;28;20231;-69
2024/01/13 06:29:42;;;;;;;4.97;3.43;;;;;;;3.01;100.00;101860.63;6236109;28;20618;-69
2024/01/13 06:33:04;;;;;;;3.47;2.97;;;;;;;3.05;100.00;101846.25;6233227;28;20247;-69
2024/01/13 06:36:26;;;;;;;3.70;3.30;;;;;;;3.01;100.00;101841.13;6240573;28;20220;-68
2024/01/13 06:39:47;;;;;;;2.93;2.63;;;;;;;2.99;100.00;101837.66;6244190;28;20617;-69
2024/01/13 06:43:10;;;;;;;3.13;2.53;;;;;;;2.97;100.00;101826.19;6221814;28;20236;-69
2024/01/13 06:46:31;;;;;;;3.27;3.07;;;;;;;2.91;100.00;101808.69;6237009;28;20228;-69
2024/01/13 06:49:52;;;;;;;3.00;2.63;;;;;;;2.87;100.00;101793.78;6235727;28;20239;-69
2024/01/13 06:53:15;;;;;;;3.73;3.20;;;;;;;2.94;100.00;101779.25;6225161;28;20224;-70
2024/01/13 06:56:37;;;;;;;3.20;2.90;;;;;;;2.86;100.00;101776.06;6237242;28;20270;-69
2024/01/13 06:59:58;;;;;;;5.10;3.73;;;;;;;2.89;100.00;101765.28;6246696;28;20665;-68
2024/01/13 07:03:19;;;;;;;4.10;2.70;;;;;;;2.88;100.00;101758.22;6237648;28;20738;-69
2024/01/13 07:06:40;;;;;;;3.83;3.53;;;;;;;2.95;100.00;101765.03;6242582;28;20224;-68
2024/01/13 07:10:03;;;;;;;4.47;4.07;;;;;;;2.94;100.00;101767.75;6237688;28;20221;-69
2024/01/13 07:13:24;;;;;;;4.73;4.10;;;;;;;3.00;100.00;101781.66;6243317;28;20721;-69
2024/01/13 07:16:45;;;;;;;3.83;3.53;;;;;;;2.92;100.00;101773.13;6240227;28;20224;-68
2024/01/13 07:20:07;;;;;;;2.57;2.40;;;;;;;2.94;100.00;101773.94;6230559;28;20232;-68
2024/01/13 07:23:28;;;;;;;3.00;2.70;;;;;;;2.97;100.00;101781.81;6239265;28;20232;-69
2024/01/13 07:26:51;;;;;;;2.93;2.70;;;;;;;2.93;100.00;101769.56;6238910;28;20240;-69
2024/01/13 07:30:13;;;;;;;2.60;2.40;;;;;;;2.95;100.00;101766.81;6239152;28;20550;-69
2024/01/13 07:33:34;;;;;;;3.00;2.80;;;;;;;2.95;100.00;101762.38;6237199;28;20232;-68
2024/01/13 07:36:55;;;;;;;2.53;2.33;;;;;;;2.88;100.00;101744.91;6234210;28;20232;-69
2024/01/13 07:40:17;;;;;;;1.43;1.43;;;;;;;2.92;100.00;101751.00;6230074;28;20231;-70
2024/01/13 07:43:39;;;;;;;1.60;1.50;;;;;;;2.93;100.00;101744.72;6243540;28;20227;-69
2024/01/13 07:47:01;;;;;;;2.17;1.70;;;;;;;2.93;100.00;101742.94;6227935;28;20232;-69
2024/01/13 07:50:21;;;;;;;1.80;1.70;;;;;;;2.96;100.00;101723.28;6225189;28;20575;-69
2024/01/13 07:53:43;;;;;;;1.93;1.83;;;;;;;3.01;100.00;101731.94;6249810;28;20489;-69
2024/01/13 07:57:04;;;;;;;2.20;1.40;;;;;;;3.03;100.00;101722.06;6237407;28;20509;-69
2024/01/13 08:00:27;;;;;;;2.43;1.67;;;;;;;3.04;100.00;101731.81;6224818;28;20228;-69
2024/01/13 08:03:48;;;;;;;1.40;1.30;;;;;;;3.02;100.00;101723.91;6220803;28;20793;-69
2024/01/13 08:07:09;;;;;;;1.60;1.50;;;;;;;3.06;100.00;101709.50;6235069;28;20223;-69
2024/01/13 08:10:32;;;;;;;5.10;2.40;;;;;;;3.00;100.00;101712.41;6235149;28;20224;-69
2024/01/13 08:13:53;;;;;;;1.30;1.20;;;;;;;3.05;100.00;101702.44;6236801;28;20259;-69
2024/01/13 08:17:15;;;;;;;1.20;1.17;;;;;;;3.00;100.00;101704.41;6232709;28;20232;-69
2024/01/13 08:20:36;;;;;;;1.53;1.43;;;;;;;3.01;100.00;101689.31;6234176;28;20228;-68
2024/01/13 08:23:57;;;;;;;1.67;1.57;;;;;;;3.04;100.00;101690.06;6237179;28;20252;-68
2024/01/13 08:27:18;;;;;;;1.53;1.43;;;;;;;3.01;100.00;101678.66;6223403;28;20236;-69
2024/01/13 08:30:39;;;;;;;1.40;1.30;;;;;;;3.02;100.00;101678.63;6234492;28;20233;-69
2024/01/13 08:34:02;;;;;;;2.13;1.50;;;;;;;3.02;100.00;101654.66;6239231;28;20228;-68
2024/01/13 08:37:22;;;;;;;1.10;1.00;;;;;;;3.00;100.00;101650.31;6231526;28;20224;-68
2024/01/13 08:40:45;;;;;;;1.20;1.10;;;;;;;2.99;100.00;101660.09;6235979;28;20228;-68
2024/01/13 08:44:06;;;;;;;2.13;1.93;;;;;;;3.10;100.00;101652.50;6241383;28;20248;-69
2024/01/13 08:47:27;;;;;;;1.30;1.20;;;;;;;3.06;98.63;101652.72;6240799;28;20232;-69
2024/01/13 08:50:49;;;;;;;1.30;1.20;;;;;;;3.15;95.99;101649.63;6240949;28;22849;-69
2024/01/13 08:54:10;;;;;;;2.10;2.00;;;;;;;3.23;93.31;101653.66;6251539;28;20243;-68
2024/01/13 08:57:31;;;;;;;1.40;1.30;;;;;;;3.20;92.42;101658.25;6226158;28;20725;-69
2024/01/13 09:00:54;;;;;;;1.90;1.73;;;;;;;3.18;92.02;101652.13;6238747;28;20342;-68
2024/01/13 09:04:15;;;;;;;1.50;1.40;;;;;;;3.18;91.20;101653.00;6235806;28;20229;-69
2024/01/13 09:07:38;;;;;;;1.20;1.10;;;;;;;3.71;89.05;101645.13;6234372;28;20236;-70
2024/01/13 09:10:59;;;;;;;1.73;1.63;;;;;;;3.29;89.95;101635.66;6242516;28;20224;-69
2024/01/13 09:14:20;;;;;;;3.07;2.50;;;;;;;3.32;89.94;101646.19;6245724;28;20589;-69
2024/01/13 09:17:41;;;;;;;1.83;1.73;;;;;;;3.33;89.93;101637.25;6238640;28;20256;-68
2024/01/13 09:21:03;;;;;;;1.57;1.47;;;;;;;3.32;90.87;101636.38;6209690;28;20795;-68
2024/01/13 09:24:25;;;;;;;1.13;1.13;;;;;;;3.31;92.08;101634.66;6247808;28;20283;-70
2024/01/13 09:27:46;;;;;;;1.20;1.10;;;;;;;3.33;92.10;101629.25;6239027;28;20231;-70
2024/01/13 09:31:08;;;;;;;2.97;1.27;;;;;;;3.36;93.11;101624.63;6228778;28;20235;-69
2024/01/13 09:34:29;;;;;;;1.07;1.07;;;;;;;3.30;94.35;101613.44;6240581;28;21905;-72
2024/01/13 09:37:50;;;;;;;1.63;1.53;;;;;;;3.37;94.04;101613.06;6227766;28;20240;-70
2024/01/13 09:41:12;;;;;;;2.13;1.90;;;;;;;3.37;94.81;101609.53;6236821;28;20227;-71
2024/01/13 09:44:33;;;;;;;2.30;2.20;;;;;;;3.43;95.81;101607.44;6241611;28;20236;-71
2024/01/13 09:47:58;;;;;;;0.97;0.93;;;;;;;3.36;97.10;101616.63;6236148;28;20232;-70
2024/01/13 09:51:19;;;;;;;2.83;1.57;;;;;;;4.04;95.91;101606.16;6233682;28;20236;-70
2024/01/13 09:54:43;;;;;;;1.07;1.00;;;;;;;3.59;100.00;101605.75;6236585;28;20236;-71
2024/01/13 09:58:07;;;;;;;5.90;4.40;;;;;;;4.27;100.00;101599.66;6213182;28;20499;-70
2024/01/13 10:01:30;;;;;;;1.03;1.03;;;;;;;4.18;100.00;101594.78;6238963;28;20247;-70
2024/01/13 10:04:51;;;;;;;4.10;3.80;;;;;;;3.90;100.00;101586.47;6233978;28;20225;-70
2024/01/13 10:08:13;;;;;;;2.87;2.67;;;;;;;4.22;100.00;101582.16;6250694;28;20328;-71
2024/01/13 10:11:34;;;;;;;1.13;1.07;;;;;;;3.80;100.00;101586.03;6240627;28;20597;-71
2024/01/13 10:14:57;;;;;;;1.57;1.30;;;;;;;3.68;100.00;101576.00;6245101;28;20237;-70
2024/01/13 10:18:18;;;;;;;1.60;0.90;;;;;;;3.61;100.00;101577.22;6245838;28;20224;-70
2024/01/13 10:21:39;;;;;;;0.90;0.90;;;;;;;3.58;100.00;101566.72;6240799;28;20661;-70
2024/01/13 10:25:00;;;;;;;1.13;1.13;;;;;;;3.55;100.00;101561.53;6238730;28;20508;-70
2024/01/13 10:28:23;;;;;;;2.17;2.00;;;;;;;3.51;100.00;101551.09;6246241;28;20488;-70
2024/01/13 10:31:47;;;;;;;1.53;0.83;;;;;;;3.47;100.00;101558.38;6238006;28;20228;-71
2024/01/13 10:35:08;;;;;;;1.57;1.47;;;;;;;3.53;100.00;101550.06;6240274;28;20327;-70
2024/01/13 10:38:29;;;;;;;1.10;1.00;;;;;;;3.51;100.00;101533.28;6244914;28;20697;-70
2024/01/13 10:41:52;;;;;;;1.20;1.20;;;;;;;3.60;100.00;101527.53;6233885;28;20589;-70
2024/01/13 10:45:16;;;;;;;1.70;1.60;;;;;;;3.66;100.00;101513.03;6243384;28;20232;-70
2024/01/13 10:48:43;;;;;;;1.50;1.40;;;;;;;3.55;100.00;101510.88;6253981;28;20718;-69
2024/01/13 10:52:04;;;;;;;1.90;1.80;;;;;;;3.69;100.00;101497.72;6245832;28;20232;-71
2024/01/13 10:55:26;;;;;;;1.80;1.70;;;;;;;3.63;100.00;101489.19;6234438;28;20243;-70
2024/01/13 10:58:47;;;;;;;1.40;1.30;;;;;;;3.62;100.00;101476.78;6245613;28;20322;-70
2024/01/13 11:02:12;;;;;;;1.50;1.40;;;;;;;3.65;100.00;101472.16;6227799;28;20602;-71
2024/01/13 11:05:36;;;;;;;1.80;1.70;;;;;;;3.69;100.00;101457.72;6239736;28;21021;-72
2024/01/13 11:08:58;;;;;;;1.60;1.50;;;;;;;3.72;100.00;101465.59;6259603;28;20239;-70
2024/01/13 11:12:27;;;;;;;2.40;1.90;;;;;;;3.70;100.00;101461.28;6231623;28;20227;-70
2024/01/13 11:15:53;;;;;;;1.47;1.33;;;;;;;3.68;100.00;101448.03;6224930;28;20746;-70
2024/01/13 11:19:14;;;;;;;1.50;1.30;;;;;;;3.72;100.00;101446.06;6241644;28;20236;-69
2024/01/13 11:22:38;;;;;;;2.43;1.70;;;;;;;3.71;100.00;101436.34;6234725;28;20232;-71
2024/01/13 11:25:58;;;;;;;1.10;1.10;;;;;;;3.66;100.00;101425.03;6235662;28;20223;-70
2024/01/13 11:29:21;;;;;;;1.47;1.20;;;;;;;3.68;100.00;101418.72;6234499;28;20252;-69
2024/01/13 11:32:43;;;;;;;1.53;1.43;;;;;;;3.69;100.00;101406.25;6224170;28;20224;-69
2024/01/13 11:36:05;;;;;;;1.20;1.00;;;;;;;3.66;100.00;101387.72;6232715;28;20224;-69
2024/01/13 11:39:28;;;;;;;1.20;1.20;;;;;;;3.59;100.00;101381.00;6238616;28;20677;-70
2024/01/13 11:42:59;;;;;;;3.67;1.63;;;;;;;3.67;100.00;101381.47;6236335;28;20220;-70
2024/01/13 11:46:20;;;;;;;2.00;1.47;;;;;;;3.66;100.00;101377.94;6219316;28;20720;-69
2024/01/13 11:49:43;;;;;;;2.23;1.80;;;;;;;3.70;100.00;101378.63;6235992;28;20355;-73
2024/01/13 11:53:33;;;;;;;1.90;1.27;;;;;;;3.72;100.00;101366.06;6228041;28;20306;-71
2024/01/13 11:56:57;;;;;;;3.70;2.57;;;;;;;3.75;100.00;101357.94;6242523;28;20232;-71
2024/01/13 12:00:18;;;;;;;2.00;1.90;;;;;;;3.71;100.00;101351.03;6232008;28;20228;-70
2024/01/13 12:03:41;;;;;;;1.60;1.50;;;;;;;3.77;100.00;101350.72;6244347;28;20232;-71
2024/01/13 12:07:02;;;;;;;1.43;1.20;;;;;;;3.73;100.00;101338.50;6235852;28;20232;-71
2024/01/13 12:10:23;;;;;;;2.57;2.37;;;;;;;3.74;100.00;101335.75;6236196;28;20247;-71
2024/01/13 12:13:46;;;;;;;2.50;2.30;;;;;;;3.78;100.00;101326.63;6237606;28;20228;-71
2024/01/13 12:17:08;;;;;;;2.50;2.40;;;;;;;3.81;100.00;101320.28;6233363;28;20322;-70
2024/01/13 12:20:29;;;;;;;3.57;2.53;;;;;;;3.76;100.00;101322.31;6228065;28;20236;-70
2024/01/13 12:23:49;;;;;;;2.83;2.63;;;;;;;3.85;100.00;101312.03;6244437;28;20236;-70
2024/01/13 12:27:10;;;;;;;2.30;2.20;;;;;;;3.83;100.00;101321.94;6238940;28;20259;-70
2024/01/13 12:30:35;;;;;;;2.77;2.67;;;;;;;3.85;100.00;101306.69;6248816;28;20644;-71
2024/01/13 12:33:56;;;;;;;1.70;1.60;;;;;;;3.87;100.00;101298.63;6249032;28;20314;-70
2024/01/13 12:37:18;;;;;;;3.73;3.23;;;;;;;3.82;100.00;101295.31;6232766;28;20228;-69
2024/01/13 12:40:40;;;;;;;3.90;3.60;;;;;;;3.88;97.85;101273.69;6215468;28;20239;-69
2024/01/13 12:44:03;;;;;;;3.00;2.70;;;;;;;3.84;95.40;101274.75;6235905;28;20652;-71
2024/01/13 12:47:26;;;;;;;4.03;3.63;;;;;;;3.90;93.05;101264.63;6230026;28;20267;-72
2024/01/13 12:50:48;;;;;;;4.53;4.03;;;;;;;3.93;93.00;101250.28;6235799;28;20220;-69
2024/01/13 12:54:09;;;;;;;3.33;3.03;;;;;;;3.96;92.97;101228.78;6209360;28;20236;-71
2024/01/13 12:57:30;;;;;;;5.57;3.87;;;;;;;4.00;93.53;101241.84;6232035;28;20701;-71
2024/01/13 13:00:50;;;;;;;4.00;3.50;;;;;;;4.07;92.70;101229.00;6230634;28;20271;-71
2024/01/13 13:04:13;;;;;;;3.90;3.60;;;;;;;4.02;93.78;101218.63;6236159;28;20786;-69
2024/01/13 13:07:34;;;;;;;3.77;2.87;;;;;;;4.03;94.54;101215.00;6235157;28;20224;-71
2024/01/13 13:10:55;;;;;;;3.43;3.13;;;;;;;4.42;93.20;101201.16;6241334;28;20239;-70
2024/01/13 13:14:16;;;;;;;4.13;3.80;;;;;;;4.17;96.02;101200.03;6239319;28;20604;-70
2024/01/13 13:17:37;;;;;;;3.47;3.17;;;;;;;4.15;97.71;101201.94;6217185;28;20235;-69
2024/01/13 13:20:59;;;;;;;4.73;4.17;;;;;;;4.20;99.06;101184.69;6213179;28;20629;-69
2024/01/13 13:24:20;;;;;;;5.70;4.53;;;;;;;4.17;100.00;101184.88;6237983;28;20254;-69
2024/01/13 13:27:41;;;;;;;4.70;4.23;;;;;;;4.17;100.00;101170.69;6229885;28;20525;-70
2024/01/13 13:31:04;;;;;;;6.33;4.50;;;;;;;4.17;100.00;101160.00;6229408;28;20220;-69
2024/01/13 13:34:24;;;;;;;4.17;3.83;;;;;;;4.20;100.00;101165.16;6236502;28;20522;-69
2024/01/13 13:37:48;;;;;;;4.43;3.83;;;;;;;4.20;100.00;101160.69;6227353;28;20224;-68
2024/01/13 13:41:09;;;;;;;6.93;4.33;;;;;;;4.24;100.00;101156.88;6227043;28;20239;-69
2024/01/13 13:44:32;;;;;;;5.23;4.80;;;;;;;4.30;100.00;101150.34;6238164;28;20256;-70
2024/01/13 13:47:53;;;;;;;5.77;5.27;;;;;;;4.35;100.00;101134.91;6221060;28;20239;-69
2024/01/13 13:51:14;;;;;;;6.93;3.50;;;;;;;4.77;100.00;101149.25;6229298;28;20224;-69
2024/01/13 13:54:36;;;;;;;5.13;4.13;;;;;;;4.29;100.00;101152.16;6239992;28;20228;-68
2024/01/13 13:57:57;;;;;;;4.10;3.70;;;;;;;4.30;97.52;101148.53;6234999;28;20318;-68
2024/01/13 14:01:18;;;;;;;3.53;2.90;;;;;;;4.28;96.07;101149.56;6226782;28;20255;-69
2024/01/13 14:04:39;;;;;;;4.10;3.70;;;;;;;4.34;97.35;101163.41;6232708;28;20228;-69
2024/01/13 14:08:00;;;;;;;3.63;3.33;;;;;;;4.38;98.44;101164.09;6235696;28;20240;-70
2024/01/13 14:11:22;;;;;;;6.47;4.23;;;;;;;4.40;99.24;101156.88;6234574;28;24938;-68
2024/01/13 14:14:43;;;;;;;3.30;3.00;;;;;;;4.36;100.00;101160.66;6239436;28;20236;-67
2024/01/13 14:18:04;;;;;;;1.83;1.73;;;;;;;4.43;100.00;101146.88;6233026;28;20334;-69
2024/01/13 14:21:26;;;;;;;2.87;2.30;;;;;;;4.51;100.00;101157.94;6236815;28;20236;-67
2024/01/13 14:24:46;;;;;;;2.27;2.07;;;;;;;4.50;100.00;101155.38;6246255;28;20224;-69
2024/01/13 14:28:09;;;;;;;2.77;2.60;;;;;;;4.47;100.00;101153.72;6254678;28;20236;-68
2024/01/13 14:31:30;;;;;;;1.13;1.03;;;;;;;4.50;100.00;101161.56;6233815;28;20239;-68
2024/01/13 14:34:50;;;;;;;1.00;1.00;;;;;;;4.53;100.00;101160.50;6245268;28;20220;-68
2024/01/13 14:38:12;;;;;;;1.90;1.60;;;;;;;4.53;100.00;101160.50;6241387;28;20300;-68
2024/01/13 14:41:33;;;;;;;1.47;1.37;;;;;;;4.60;100.00;101162.75;6237450;28;20225;-68
2024/01/13 14:44:55;;;;;;;1.03;1.03;;;;;;;4.66;100.00;101162.38;6236176;28;20231;-69
2024/01/13 14:48:16;;;;;;;1.30;1.30;;;;;;;4.72;100.00;101150.44;6229665;28;20240;-68
2024/01/13 14:51:37;;;;;;;1.20;1.10;;;;;;;4.74;100.00;101162.75;6228981;28;20247;-68
2024/01/13 14:54:59;;;;;;;6.13;1.60;;;;;;;4.77;100.00;101151.03;6237497;28;20239;-68
2024/01/13 14:58:22;;;;;;;1.33;1.23;;;;;;;4.78;100.00;101150.94;6238221;28;20232;-68
2024/01/13 15:01:46;;;;;;;3.17;1.73;;;;;;;4.77;100.00;101148.38;6221354;28;20241;-67
2024/01/13 15:05:08;;;;;;;1.73;1.47;;;;;;;4.77;100.00;101145.72;6235091;28;20232;-69
2024/01/13 15:08:29;;;;;;;4.80;2.73;;;;;;;4.86;100.00;101153.13;6248058;28;20245;-68
2024/01/13 15:11:49;;;;;;;5.67;2.30;;;;;;;4.79;100.00;101152.69;6242570;28;20228;-68
2024/01/13 15:15:10;;;;;;;3.23;1.90;;;;;;;4.81;100.00;101152.56;6239253;28;20551;-67
2024/01/13 15:18:33;;;;;;;5.23;2.27;;;;;;;4.84;100.00;101141.69;6244653;28;22142;-68
2024/01/13 15:21:54;;;;;;;2.30;2.10;;;;;;;4.86;100.00;101147.78;6236697;28;20235;-69
2024/01/13 15:25:15;;;;;;;5.00;2.30;;;;;;;4.87;100.00;101146.88;6233753;28;20724;-68
2024/01/13 15:28:36;;;;;;;13.67;3.63;;;;;;;4.90;100.00;101130.66;6239675;28;20244;-68
2024/01/13 15:31:57;;;;;;;3.07;2.67;;;;;;;4.82;100.00;101136.44;6233325;28;20292;-68
2024/01/13 15:35:20;;;;;;;8.47;4.37;;;;;;;4.79;100.00;101122.44;6234527;28;20220;-69
2024/01/13 15:38:41;;;;;;;7.23;3.37;;;;;;;4.77;100.00;101124.34;6243350;28;20229;-68